Saint Helens, OR (97051)

4:37 PM PST on February 13, 2016 (GMT -0800)
Arbor Hill, Sykes Rd. | | Change Station
CLOSE
Current Station
Personal Weather Station
Location: St. Helens, OR
Elevation: 200 ft
Nearby Weather Stations

Elev 200 ft 45.85 °N, 122.85 °W | Updated 2 minutes ago

Rain
Rain
47.5 °F
Feels Like 46 °F
N
4.0
Wind Variable Wind from SE
Gusts 6.0 mph

Today
High -- | Low -- °F
--% Chance of Precip.
Yesterday
High -- | Low -- °F
Precip. -- in
Pressure 30.21 in
Visibility 10.0 miles
Clouds Mostly Cloudy 4700 ft
Overcast 5500 ft
Windchill 46 °F
Dew Point 45 °F
Humidity 90%
Rainfall 0.09 in
Snow Depth Not available.
7:17 AM 5:34 PM
Waxing Crescent, 35% visible
METAR KSPB 132353Z AUTO 17005KT 10SM -RA BKN047 OVC055 09/07 A3021 RMK AO2 RAB02 SLP228 P0001 60004 T00940067 10100 20078 56017
Pressure 30.21 in
Visibility 10.0 miles
Clouds Mostly Cloudy 4700 ft
Overcast 5500 ft
Windchill 46 °F
Dew Point 45 °F
Humidity 90%
Rainfall 0.09 in
Snow Depth Not available.
7:17 AM 5:34 PM
Waxing Crescent, 35% visible
METAR KSPB 132353Z AUTO 17005KT 10SM -RA BKN047 OVC055 09/07 A3021 RMK AO2 RAB02 SLP228 P0001 60004 T00940067 10100 20078 56017

10-Day Weather Forecast

Almanac

Astronomy

Feb. 13, 2016 Rise Set
Actual Time
Civil Twilight
Nautical Twilight
Astronomical Twilight
Moon
Length of Visible Light
Length of Day
Tomorrow will be .
, % of the Moon is Illuminated

Today's Extremes

State Highs State Lows

Community

WunderPhotos

Upload Photos

1,892,712 photos uploaded!

WunderBlog® & News

Nearby

Air Quality

  Air Quality AQ Index Pollutant
Not available.

Snow Depth

Station Depth Elevation

Earthquake Activity

City Distance Mag. Time & Date
Minimum magnitude displayed is 2.5.

Coastal Water Temperatures

Place Temperature

Stations

Nearby Weather Stations

Station Location Temp. Windchill Dew Point Humidity Wind Precip. Elev Updated Type
                   

Watches & Warnings

There are currently no watches in effect.